Time;durP1;ratioP1;P1;durP2;ratioP2;P2;SDS_P1;SDS_P2;PMS_P1;PMS_P2;Temp;Humidity;BMP_temperature;BMP_pressure;BME280_temperature;BME280_humidity;BME280_pressure;Samples;Min_cycle;Max_cycle;Signal;HPM_P1;HPM_P2
2023/08/14 00:01:22;;;;;;;4.27;2.60;;;20.30;50.30;;;;;;5060439;28;46609;-72
2023/08/14 00:03:47;;;;;;;7.07;2.70;;;20.30;50.30;;;;;;5053630;28;46333;-72
2023/08/14 00:06:13;;;;;;;6.07;3.00;;;20.30;50.50;;;;;;5059031;28;46585;-71
2023/08/14 00:08:39;;;;;;;7.33;2.50;;;20.20;50.80;;;;;;5057575;28;46872;-71
2023/08/14 00:11:04;;;;;;;4.80;2.40;;;20.30;50.80;;;;;;5062091;28;46446;-70
2023/08/14 00:13:30;;;;;;;9.33;2.87;;;20.20;50.60;;;;;;5054728;28;46759;-70
2023/08/14 00:15:55;;;;;;;6.97;2.20;;;20.20;50.80;;;;;;5061050;28;45793;-71
2023/08/14 00:18:21;;;;;;;4.93;2.50;;;20.20;50.90;;;;;;5061791;28;46533;-71
2023/08/14 00:20:47;;;;;;;8.67;2.90;;;20.20;50.90;;;;;;5061400;28;46804;-71
2023/08/14 00:23:12;;;;;;;4.70;2.70;;;20.10;50.90;;;;;;5057463;28;46277;-71
2023/08/14 00:25:42;;;;;;;6.40;2.53;;;20.10;51.30;;;;;;5058870;28;46469;-70
2023/08/14 00:28:09;;;;;;;4.67;2.50;;;20.10;51.40;;;;;;5043313;28;46687;-71
2023/08/14 00:30:36;;;;;;;5.27;2.67;;;20.00;51.50;;;;;;5060849;28;47107;-70
2023/08/14 00:33:02;;;;;;;4.17;2.73;;;19.90;51.90;;;;;;5057378;28;46425;-70
2023/08/14 00:35:27;;;;;;;4.40;2.47;;;19.90;52.30;;;;;;5056650;28;46581;-71
2023/08/14 00:37:53;;;;;;;3.90;2.27;;;19.90;52.50;;;;;;5058597;28;46403;-72
2023/08/14 00:40:24;;;;;;;4.20;2.93;;;19.90;52.60;;;;;;5059015;28;46220;-71
2023/08/14 00:42:50;;;;;;;4.10;2.70;;;19.80;52.70;;;;;;5043597;28;46482;-71
2023/08/14 00:45:17;;;;;;;4.90;2.73;;;19.80;53.10;;;;;;5057886;28;46645;-71
2023/08/14 00:47:44;;;;;;;5.93;2.60;;;19.80;53.10;;;;;;5063764;28;46781;-70
2023/08/14 00:50:10;;;;;;;4.50;2.93;;;19.80;53.20;;;;;;5057779;28;46453;-71
2023/08/14 00:52:39;;;;;;;4.37;2.87;;;19.70;53.00;;;;;;5056122;28;46467;-70
2023/08/14 00:55:08;;;;;;;8.83;2.43;;;19.70;53.30;;;;;;5056704;28;45869;-71
2023/08/14 00:57:34;;;;;;;7.20;3.30;;;19.70;53.30;;;;;;5057115;28;46668;-70
2023/08/14 01:00:07;;;;;;;5.50;3.07;;;19.70;53.30;;;;;;5060485;28;46467;-71
2023/08/14 01:02:34;;;;;;;4.53;2.50;;;19.60;53.40;;;;;;5058301;28;46436;-72
2023/08/14 01:05:00;;;;;;;5.37;2.70;;;19.50;53.70;;;;;;5056993;28;46719;-71
2023/08/14 01:07:26;;;;;;;4.83;2.50;;;19.50;53.90;;;;;;5059998;28;46432;-71
2023/08/14 01:09:52;;;;;;;4.30;2.50;;;19.50;53.90;;;;;;5055037;28;46435;-71
2023/08/14 01:12:37;;;;;;;4.87;2.90;;;19.50;53.80;;;;;;5058191;28;46446;-71
2023/08/14 01:15:08;;;;;;;4.57;2.57;;;19.50;53.80;;;;;;5052906;28;46773;-72
2023/08/14 01:17:36;;;;;;;8.30;2.60;;;19.60;53.60;;;;;;5054252;28;46582;-71
2023/08/14 01:20:04;;;;;;;5.50;3.00;;;19.60;53.30;;;;;;5057688;28;46645;-71
2023/08/14 01:22:46;;;;;;;5.00;2.80;;;19.50;53.40;;;;;;5058957;28;46761;-70
2023/08/14 01:25:30;;;;;;;7.97;3.03;;;19.40;53.60;;;;;;5057822;28;46535;-72
2023/08/14 01:27:56;;;;;;;4.90;2.70;;;19.30;53.70;;;;;;5040317;28;46820;-73
2023/08/14 01:30:23;;;;;;;4.13;2.40;;;19.30;53.70;;;;;;5056016;28;47483;-70
2023/08/14 01:32:50;;;;;;;3.93;2.70;;;19.40;53.40;;;;;;5057107;28;46754;-71
2023/08/14 01:35:27;;;;;;;5.10;2.53;;;19.40;53.10;;;;;;5054551;28;46411;-72
2023/08/14 01:38:05;;;;;;;5.77;3.00;;;19.50;52.90;;;;;;5017448;28;46562;-72
2023/08/14 01:41:23;;;;;;;5.30;3.23;;;19.60;52.60;;;;;;5057224;28;47610;-71
2023/08/14 01:43:55;;;;;;;5.37;3.23;;;19.60;52.80;;;;;;5039568;28;46715;-71
2023/08/14 01:46:23;;;;;;;4.10;2.70;;;19.60;52.40;;;;;;5056013;28;46845;-71
2023/08/14 01:48:50;;;;;;;4.40;2.53;;;19.70;52.50;;;;;;5056449;28;46379;-72
2023/08/14 01:51:23;;;;;;;8.10;3.37;;;19.80;52.40;;;;;;5057151;28;46705;-71
2023/08/14 01:53:54;;;;;;;6.30;2.80;;;19.80;52.20;;;;;;5037673;28;46534;-72
2023/08/14 01:56:24;;;;;;;8.30;3.30;;;19.80;52.40;;;;;;5059022;28;46513;-70
2023/08/14 01:58:50;;;;;;;3.87;2.30;;;19.80;52.40;;;;;;5053640;28;46426;-72
2023/08/14 02:01:15;;;;;;;5.63;2.90;;;19.80;52.40;;;;;;5057887;28;46411;-71
2023/08/14 02:03:41;;;;;;;4.27;2.67;;;19.90;52.40;;;;;;5054324;28;46542;-72
2023/08/14 02:06:07;;;;;;;4.43;2.80;;;19.90;52.40;;;;;;5054644;28;46411;-70
2023/08/14 02:08:33;;;;;;;5.07;3.00;;;19.90;52.50;;;;;;5062051;28;46522;-71
2023/08/14 02:11:06;;;;;;;3.33;2.43;;;19.90;52.50;;;;;;5056883;28;46493;-71
2023/08/14 02:13:31;;;;;;;4.00;2.43;;;19.80;52.70;;;;;;5051795;28;46513;-70
2023/08/14 02:15:57;;;;;;;3.50;2.50;;;19.70;53.30;;;;;;5034172;28;46068;-70
2023/08/14 02:18:23;;;;;;;5.10;2.70;;;19.60;53.70;;;;;;5056418;28;47142;-70
2023/08/14 02:20:49;;;;;;;4.23;2.87;;;19.60;54.00;;;;;;5055151;28;46688;-71
2023/08/14 02:23:19;;;;;;;6.63;3.20;;;19.50;54.20;;;;;;5057280;28;46403;-71
2023/08/14 02:25:45;;;;;;;5.10;2.77;;;19.40;54.60;;;;;;5026306;28;46443;-70
2023/08/14 02:28:12;;;;;;;4.50;2.60;;;19.40;54.50;;;;;;5052770;28;46831;-71
2023/08/14 02:30:41;;;;;;;13.93;3.37;;;19.40;54.40;;;;;;5049507;28;46682;-72
2023/08/14 02:33:09;;;;;;;5.70;3.10;;;19.40;54.50;;;;;;5055453;28;46918;-70
2023/08/14 02:35:36;;;;;;;3.23;2.30;;;19.40;55.90;;;;;;5042420;28;46834;-71
2023/08/14 02:38:06;;;;;;;3.57;2.53;;;19.40;54.50;;;;;;5057746;28;46667;-72
2023/08/14 02:40:31;;;;;;;4.90;3.10;;;19.40;54.20;;;;;;5059013;28;46457;-71
2023/08/14 02:43:15;;;;;;;6.70;3.00;;;19.50;54.20;;;;;;5059580;28;46457;-70
2023/08/14 02:45:44;;;;;;;6.63;2.90;;;19.40;54.40;;;;;;5038412;28;46433;-71
2023/08/14 02:48:09;;;;;;;8.93;2.97;;;19.40;54.30;;;;;;5060802;28;46664;-73
2023/08/14 02:50:40;;;;;;;6.20;3.13;;;19.40;54.40;;;;;;5059260;28;46505;-71
2023/08/14 02:53:07;;;;;;;5.53;3.10;;;19.30;54.70;;;;;;5056616;28;46510;-70
2023/08/14 02:55:33;;;;;;;7.33;3.40;;;19.30;55.10;;;;;;5024359;28;46581;-71
2023/08/14 02:57:59;;;;;;;5.60;3.70;;;19.30;55.20;;;;;;5059478;28;46693;-71
2023/08/14 03:00:24;;;;;;;6.87;3.27;;;19.20;55.50;;;;;;5059365;28;46438;-71
2023/08/14 03:02:50;;;;;;;6.17;3.63;;;19.20;55.50;;;;;;5059678;28;46423;-71
2023/08/14 03:05:19;;;;;;;7.30;3.20;;;19.20;56.10;;;;;;5059210;28;46450;-71
2023/08/14 03:07:45;;;;;;;4.50;3.10;;;19.20;56.10;;;;;;5055047;28;46593;-71
2023/08/14 03:10:11;;;;;;;4.90;3.27;;;19.20;56.30;;;;;;5057577;28;46874;-71
2023/08/14 03:12:39;;;;;;;9.57;3.20;;;19.20;56.20;;;;;;5057453;28;46451;-71
2023/08/14 03:15:07;;;;;;;8.00;3.33;;;19.30;56.00;;;;;;5039762;28;46649;-70
2023/08/14 03:17:34;;;;;;;7.00;3.10;;;19.30;55.80;;;;;;5060135;28;46602;-72
2023/08/14 03:20:00;;;;;;;5.43;3.30;;;19.30;55.80;;;;;;5058860;28;46492;-71
2023/08/14 03:22:25;;;;;;;6.47;3.50;;;19.30;55.80;;;;;;5058410;28;46551;-70
2023/08/14 03:24:51;;;;;;;6.43;3.43;;;19.20;55.90;;;;;;5058331;28;46507;-71
2023/08/14 03:27:19;;;;;;;7.03;3.70;;;19.20;56.20;;;;;;5061718;28;46543;-71
2023/08/14 03:29:45;;;;;;;5.07;3.00;;;19.20;56.20;;;;;;5057195;28;47435;-71
2023/08/14 03:32:13;;;;;;;5.10;3.03;;;19.20;56.10;;;;;;5055935;28;46742;-70
2023/08/14 03:34:39;;;;;;;4.93;3.20;;;19.20;55.90;;;;;;5057834;28;46734;-71
2023/08/14 03:37:09;;;;;;;5.47;3.33;;;19.30;55.90;;;;;;5061169;28;46742;-71
2023/08/14 03:39:36;;;;;;;4.67;3.30;;;19.30;55.70;;;;;;5056933;28;46519;-72
2023/08/14 03:42:02;;;;;;;5.93;3.03;;;19.30;55.70;;;;;;5057281;28;46633;-71
2023/08/14 03:44:28;;;;;;;3.70;2.90;;;19.30;55.70;;;;;;5026809;28;46555;-71
2023/08/14 03:46:57;;;;;;;10.30;3.60;;;19.30;55.50;;;;;;5057643;28;46522;-71
2023/08/14 03:49:29;;;;;;;6.57;3.30;;;19.30;55.80;;;;;;5056025;28;46937;-71
2023/08/14 03:51:55;;;;;;;7.47;3.60;;;19.20;55.80;;;;;;5038146;28;46529;-71
2023/08/14 03:54:24;;;;;;;10.20;3.37;;;19.20;55.80;;;;;;5057584;28;46717;-70
2023/08/14 03:56:51;;;;;;;4.40;3.20;;;19.20;55.80;;;;;;5056663;28;46484;-70
2023/08/14 03:59:22;;;;;;;5.10;3.23;;;19.20;55.90;;;;;;5056634;28;46355;-71
2023/08/14 04:01:47;;;;;;;6.20;3.50;;;19.20;55.80;;;;;;5025346;28;46863;-71
2023/08/14 04:04:14;;;;;;;6.00;3.00;;;19.20;55.70;;;;;;5059826;28;46554;-71
2023/08/14 04:06:40;;;;;;;4.60;3.37;;;19.20;55.50;;;;;;5054797;28;46379;-70
2023/08/14 04:09:05;;;;;;;5.83;3.57;;;19.20;55.50;;;;;;5059077;28;47302;-70
2023/08/14 04:11:35;;;;;;;5.40;3.20;;;19.20;55.70;;;;;;5058894;28;45855;-71
2023/08/14 04:14:00;;;;;;;4.90;2.93;;;19.20;54.70;;;;;;5054325;28;46840;-71
2023/08/14 04:16:41;;;;;;;5.87;3.30;;;19.20;55.80;;;;;;5058143;28;46538;-70
2023/08/14 04:19:12;;;;;;;8.20;2.87;;;19.30;55.50;;;;;;5057107;28;46475;-71
2023/08/14 04:21:39;;;;;;;5.40;3.47;;;19.30;55.40;;;;;;5056133;28;46516;-71
2023/08/14 04:24:06;;;;;;;5.50;2.80;;;19.30;54.40;;;;;;5025331;28;46469;-70
2023/08/14 04:26:32;;;;;;;8.13;2.77;;;19.30;55.50;;;;;;5058314;28;46503;-70
2023/08/14 04:28:58;;;;;;;4.87;2.50;;;19.30;55.90;;;;;;5061780;28;47053;-72
2023/08/14 04:31:23;;;;;;;8.47;3.20;;;19.30;55.90;;;;;;5057029;28;46700;-72
2023/08/14 04:33:49;;;;;;;5.03;3.23;;;19.30;56.30;;;;;;5057034;28;46612;-71
2023/08/14 04:36:15;;;;;;;5.47;3.30;;;19.40;56.10;;;;;;5058022;28;46545;-69
2023/08/14 04:38:42;;;;;;;8.37;3.90;;;19.40;55.60;;;;;;5056909;28;46403;-70
2023/08/14 04:41:10;;;;;;;6.10;3.17;;;19.50;55.60;;;;;;5038505;28;46529;-71
2023/08/14 04:43:35;;;;;;;5.53;3.20;;;19.60;55.30;;;;;;5039178;28;46315;-71
2023/08/14 04:46:11;;;;;;;9.23;3.50;;;19.70;55.00;;;;;;5056802;28;46474;-71
2023/08/14 04:48:48;;;;;;;5.10;3.67;;;19.80;54.80;;;;;;5058029;28;46465;-70
2023/08/14 04:51:16;;;;;;;4.73;3.23;;;19.90;54.80;;;;;;5022393;28;46896;-71
2023/08/14 04:53:50;;;;;;;4.93;2.50;;;20.00;54.50;;;;;;5020137;28;46554;-71
2023/08/14 04:56:20;;;;;;;7.47;3.37;;;20.00;54.40;;;;;;5055586;28;46775;-73
2023/08/14 04:58:53;;;;;;;4.73;3.20;;;20.00;54.30;;;;;;5060280;28;47213;-71
2023/08/14 05:01:24;;;;;;;5.03;3.60;;;20.00;54.40;;;;;;5043557;28;46658;-71
2023/08/14 05:03:51;;;;;;;6.50;3.30;;;20.00;54.40;;;;;;5058191;28;46495;-70
2023/08/14 05:06:17;;;;;;;6.03;3.10;;;20.10;54.30;;;;;;5038623;28;46593;-70
2023/08/14 05:08:43;;;;;;;4.43;2.90;;;20.20;53.80;;;;;;5058590;28;46446;-70
2023/08/14 05:11:11;;;;;;;11.93;4.00;;;20.40;53.20;;;;;;5054284;28;46646;-71
2023/08/14 05:13:44;;;;;;;5.80;3.03;;;20.40;52.70;;;;;;5039754;28;46586;-71
2023/08/14 05:16:10;;;;;;;6.53;3.10;;;20.50;52.40;;;;;;5058162;28;46399;-71
2023/08/14 05:18:42;;;;;;;5.37;3.07;;;20.50;52.20;;;;;;5058392;28;47038;-71
2023/08/14 05:21:11;;;;;;;4.63;2.63;;;20.60;52.30;;;;;;5050043;28;46548;-71
2023/08/14 05:23:37;;;;;;;4.93;3.30;;;20.60;52.30;;;;;;5034574;28;46475;-71
2023/08/14 05:26:03;;;;;;;9.90;3.70;;;20.60;52.20;;;;;;5056569;28;46454;-70
2023/08/14 05:28:28;;;;;;;9.47;3.60;;;20.60;52.10;;;;;;5058188;28;46554;-70
2023/08/14 05:30:54;;;;;;;7.80;2.43;;;20.60;52.20;;;;;;5061574;28;46537;-69
2023/08/14 05:33:19;;;;;;;8.90;3.43;;;20.70;52.00;;;;;;5053698;28;46493;-69
2023/08/14 05:35:48;;;;;;;6.70;3.00;;;20.80;51.40;;;;;;5065262;28;45857;-68
2023/08/14 05:38:14;;;;;;;4.30;2.87;;;20.80;51.30;;;;;;5057580;28;46429;-68
2023/08/14 05:40:39;;;;;;;5.60;2.57;;;20.90;51.10;;;;;;5061289;28;46396;-71
2023/08/14 05:43:06;;;;;;;6.33;2.57;;;21.10;50.50;;;;;;5055894;28;46528;-71
2023/08/14 05:45:42;;;;;;;4.67;2.60;;;21.70;49.40;;;;;;5054493;28;46006;-69
2023/08/14 05:48:08;;;;;;;7.40;2.80;;;21.80;49.30;;;;;;5060858;28;46340;-69
2023/08/14 05:50:34;;;;;;;3.90;2.80;;;21.80;49.30;;;;;;5062705;28;46555;-69
2023/08/14 05:53:04;;;;;;;4.93;2.73;;;21.80;49.10;;;;;;5041123;28;45989;-69
2023/08/14 05:55:38;;;;;;;5.73;2.60;;;21.80;48.40;;;;;;5056169;28;46443;-70
2023/08/14 05:58:04;;;;;;;8.90;2.70;;;21.80;48.00;;;;;;5057920;28;46721;-71
2023/08/14 06:00:30;;;;;;;8.60;3.20;;;21.80;47.70;;;;;;5061276;28;46315;-71
2023/08/14 06:02:56;;;;;;;7.00;2.87;;;21.90;47.50;;;;;;5063861;28;46450;-69
2023/08/14 06:05:22;;;;;;;4.90;2.97;;;21.90;47.20;;;;;;5056259;28;46466;-69
2023/08/14 06:07:49;;;;;;;6.20;2.70;;;21.90;47.00;;;;;;5048386;28;46577;-70
2023/08/14 06:12:44;;;;;;;5.70;2.73;;;21.90;46.90;;;;;;5022696;28;46627;-70
2023/08/14 06:15:10;;;;;;;4.73;3.10;;;22.00;46.40;;;;;;5011080;28;46473;-71
2023/08/14 06:17:36;;;;;;;4.93;3.13;;;22.10;46.00;;;;;;5008308;28;48708;-72
2023/08/14 06:20:03;;;;;;;5.60;2.70;;;22.10;45.70;;;;;;5014940;28;46385;-72
2023/08/14 06:22:29;;;;;;;4.17;2.60;;;22.10;45.50;;;;;;5021125;28;46409;-70
2023/08/14 06:24:55;;;;;;;3.57;2.40;;;22.20;45.70;;;;;;5012117;28;46644;-70
2023/08/14 06:27:20;;;;;;;6.40;2.70;;;22.10;45.50;;;;;;5022128;28;47968;-70
2023/08/14 06:29:47;;;;;;;4.40;3.00;;;22.00;45.70;;;;;;5020065;28;46299;-72
2023/08/14 06:32:12;;;;;;;10.87;3.37;;;22.00;46.10;;;;;;5017075;28;46480;-71
2023/08/14 06:34:38;;;;;;;5.73;2.97;;;22.00;46.10;;;;;;5023703;28;46453;-71
2023/08/14 06:37:04;;;;;;;6.33;2.60;;;22.00;46.10;;;;;;5025766;28;47853;-71
2023/08/14 06:39:30;;;;;;;3.90;2.63;;;22.10;45.80;;;;;;5019966;28;46508;-71
2023/08/14 06:41:56;;;;;;;4.60;2.63;;;22.20;45.40;;;;;;5018926;28;46518;-71
2023/08/14 06:44:21;;;;;;;6.07;2.77;;;22.30;45.10;;;;;;5020199;28;46633;-70
2023/08/14 06:46:47;;;;;;;5.70;3.20;;;22.90;42.70;;;;;;5024834;28;47929;-70
2023/08/14 06:49:13;;;;;;;4.03;2.40;;;24.90;35.00;;;;;;5018342;28;46358;-70
2023/08/14 06:51:39;;;;;;;4.87;2.47;;;25.50;32.00;;;;;;5021921;28;46588;-70
2023/08/14 06:54:05;;;;;;;6.57;2.47;;;26.90;27.10;;;;;;5018774;28;45892;-71
2023/08/14 06:56:31;;;;;;;4.43;2.50;;;28.00;24.00;;;;;;5020621;28;48003;-71
2023/08/14 06:58:57;;;;;;;5.70;2.40;;;28.70;21.30;;;;;;5024177;28;46355;-71
2023/08/14 07:01:24;;;;;;;5.63;2.40;;;28.60;21.40;;;;;;5028265;28;46856;-72
2023/08/14 07:03:50;;;;;;;4.70;2.53;;;27.80;24.50;;;;;;5018832;28;45912;-71
2023/08/14 07:06:15;;;;;;;4.40;2.07;;;27.10;27.10;;;;;;5038365;28;46531;-71
2023/08/14 07:08:41;;;;;;;4.40;2.77;;;26.70;28.10;;;;;;5020628;28;46674;-70
2023/08/14 07:11:07;;;;;;;8.00;2.40;;;26.60;28.70;;;;;;5022907;28;46481;-71
2023/08/14 07:13:32;;;;;;;5.73;2.30;;;26.40;29.20;;;;;;5024690;28;46398;-72
2023/08/14 07:15:58;;;;;;;14.60;2.60;;;26.20;29.30;;;;;;5018936;28;48670;-70
2023/08/14 07:18:24;;;;;;;5.60;2.63;;;26.10;29.70;;;;;;5020378;28;46355;-70
2023/08/14 07:20:50;;;;;;;9.00;2.30;;;26.40;28.80;;;;;;5018693;28;46812;-70
2023/08/14 07:23:16;;;;;;;3.67;2.00;;;26.40;29.50;;;;;;5024666;28;46390;-71
2023/08/14 07:25:42;;;;;;;6.23;2.17;;;26.60;29.00;;;;;;5026729;28;48179;-71
2023/08/14 07:28:08;;;;;;;6.53;2.80;;;26.70;28.40;;;;;;5022896;28;45927;-71
2023/08/14 07:30:35;;;;;;;3.97;2.30;;;26.80;27.60;;;;;;5027585;28;46374;-71
2023/08/14 07:33:00;;;;;;;4.83;2.73;;;26.90;27.00;;;;;;5021026;28;46446;-71
2023/08/14 07:35:26;;;;;;;5.20;2.40;;;27.10;27.10;;;;;;5032870;28;46651;-70
2023/08/14 07:37:52;;;;;;;7.47;2.50;;;27.10;27.10;;;;;;5021308;28;46719;-70
2023/08/14 07:40:18;;;;;;;7.67;2.80;;;27.30;26.40;;;;;;5021972;28;46656;-71
2023/08/14 07:42:44;;;;;;;5.37;2.47;;;27.60;25.50;;;;;;5034205;28;46646;-71
2023/08/14 07:45:09;;;;;;;12.47;2.93;;;27.80;24.70;;;;;;5017372;28;47902;-71
2023/08/14 07:47:35;;;;;;;9.73;3.03;;;27.80;24.10;;;;;;5021324;28;46612;-72
2023/08/14 07:50:01;;;;;;;6.33;2.77;;;27.70;23.90;;;;;;5013330;28;46175;-71
2023/08/14 07:52:27;;;;;;;5.87;3.00;;;27.60;24.10;;;;;;5012678;28;46712;-71
2023/08/14 07:54:54;;;;;;;6.67;2.80;;;27.70;24.10;;;;;;5032465;28;46106;-70
2023/08/14 07:57:20;;;;;;;3.30;2.20;;;27.70;23.90;;;;;;5021265;28;46500;-70
2023/08/14 07:59:46;;;;;;;4.73;2.47;;;27.80;23.70;;;;;;5021405;28;46485;-70
2023/08/14 08:02:12;;;;;;;7.53;2.70;;;27.80;23.70;;;;;;5028463;28;46449;-71
2023/08/14 08:04:38;;;;;;;5.00;2.27;;;27.80;23.60;;;;;;5017124;28;46784;-70
2023/08/14 08:07:03;;;;;;;4.83;2.40;;;27.60;23.80;;;;;;5017429;28;46462;-70
2023/08/14 08:09:30;;;;;;;6.03;2.63;;;27.60;24.00;;;;;;5014021;28;46467;-70
2023/08/14 08:11:56;;;;;;;4.10;2.40;;;27.50;24.10;;;;;;5013131;28;46330;-70
2023/08/14 08:14:22;;;;;;;5.00;2.93;;;27.50;24.20;;;;;;5019783;28;48011;-70
2023/08/14 08:16:49;;;;;;;5.70;3.03;;;27.50;24.20;;;;;;5019944;28;46425;-70
2023/08/14 08:19:15;;;;;;;3.90;2.43;;;27.50;24.10;;;;;;5018005;28;45983;-70
2023/08/14 08:21:41;;;;;;;4.67;2.63;;;27.40;24.10;;;;;;5019527;28;46364;-71
2023/08/14 08:24:07;;;;;;;3.83;2.53;;;27.30;24.30;;;;;;5012959;28;47833;-71
2023/08/14 08:26:33;;;;;;;6.37;2.70;;;27.30;24.30;;;;;;5012149;28;46413;-71
2023/08/14 08:28:59;;;;;;;4.60;2.33;;;27.20;24.30;;;;;;5018003;28;46483;-71
2023/08/14 08:31:25;;;;;;;5.90;2.60;;;27.20;24.30;;;;;;5014341;28;46426;-70
2023/08/14 08:33:51;;;;;;;6.03;2.50;;;27.30;24.10;;;;;;5017665;28;47743;-70
2023/08/14 08:36:17;;;;;;;5.47;2.60;;;27.40;23.90;;;;;;5018324;28;46701;-70
2023/08/14 08:38:44;;;;;;;6.33;3.10;;;27.50;23.30;;;;;;5022143;28;46827;-70
2023/08/14 08:41:23;;;;;;;3.63;2.47;;;27.60;23.30;;;;;;5012382;28;46674;-70
2023/08/14 08:44:04;;;;;;;5.10;2.77;;;27.80;23.00;;;;;;5031432;28;46624;-72
2023/08/14 08:46:35;;;;;;;4.60;2.97;;;27.60;22.70;;;;;;5011131;28;47054;-71
2023/08/14 08:49:03;;;;;;;7.77;2.80;;;27.70;22.70;;;;;;5017738;28;46582;-70
2023/08/14 08:51:30;;;;;;;6.03;2.80;;;27.70;22.50;;;;;;5012162;28;46857;-71
2023/08/14 08:53:56;;;;;;;5.23;2.87;;;27.70;22.10;;;;;;5013692;28;47736;-72
2023/08/14 08:56:22;;;;;;;5.30;2.80;;;27.70;21.70;;;;;;5017392;28;47075;-71
2023/08/14 08:58:48;;;;;;;9.67;3.10;;;27.60;21.80;;;;;;5019381;28;46481;-71
2023/08/14 09:01:15;;;;;;;8.20;2.87;;;27.60;21.70;;;;;;5027067;28;46641;-72
2023/08/14 09:03:41;;;;;;;6.27;2.77;;;27.60;21.80;;;;;;5018341;28;47814;-69
2023/08/14 09:06:07;;;;;;;4.27;2.40;;;27.90;21.40;;;;;;5022458;28;46553;-70
2023/08/14 09:08:32;;;;;;;4.30;2.60;;;28.00;20.80;;;;;;5022857;28;45977;-70
2023/08/14 09:10:58;;;;;;;3.97;2.63;;;28.10;20.20;;;;;;5018415;28;46614;-71
2023/08/14 09:13:24;;;;;;;4.83;2.57;;;28.10;20.10;;;;;;5023808;28;46832;-70
2023/08/14 09:15:52;;;;;;;6.33;3.20;;;28.20;20.00;;;;;;5028034;28;46489;-71
2023/08/14 09:18:17;;;;;;;5.23;3.20;;;28.20;19.70;;;;;;5025242;28;46503;-70
2023/08/14 09:20:44;;;;;;;9.37;2.83;;;28.70;18.10;;;;;;5026843;28;46349;-70
2023/08/14 09:23:14;;;;;;;8.93;3.20;;;28.80;18.90;;;;;;5015545;28;46387;-70
2023/08/14 09:25:46;;;;;;;7.80;2.97;;;29.00;17.90;;;;;;5024399;28;46416;-69
2023/08/14 09:28:12;;;;;;;4.70;2.77;;;29.00;17.00;;;;;;5026370;28;46762;-70
2023/08/14 09:30:39;;;;;;;7.70;2.40;;;29.00;17.00;;;;;;5020059;28;46398;-70
2023/08/14 09:33:10;;;;;;;6.67;2.87;;;29.10;17.10;;;;;;5019636;28;47611;-70
2023/08/14 09:35:37;;;;;;;6.60;3.00;;;29.50;16.10;;;;;;5022426;28;46436;-69
2023/08/14 09:38:03;;;;;;;5.33;2.53;;;29.90;15.20;;;;;;5021069;28;46469;-70
2023/08/14 09:40:30;;;;;;;5.80;3.00;;;29.90;14.70;;;;;;5017160;28;46500;-71
2023/08/14 09:42:56;;;;;;;5.73;3.30;;;30.20;14.50;;;;;;5017424;28;48209;-71
2023/08/14 09:45:23;;;;;;;6.07;2.57;;;30.40;13.80;;;;;;5017023;28;46478;-72
2023/08/14 09:47:50;;;;;;;7.03;2.63;;;30.60;13.10;;;;;;5022152;28;46453;-70
2023/08/14 09:50:16;;;;;;;7.80;3.20;;;30.70;12.90;;;;;;5023842;28;46469;-70
2023/08/14 09:52:42;;;;;;;4.40;2.67;;;31.10;12.70;;;;;;5028419;28;48013;-70
2023/08/14 09:55:09;;;;;;;5.80;2.87;;;31.10;12.30;;;;;;5024768;28;46517;-70
2023/08/14 09:57:36;;;;;;;6.37;3.10;;;31.30;12.00;;;;;;5022107;28;46720;-71
2023/08/14 10:00:03;;;;;;;5.97;3.17;;;31.30;11.70;;;;;;5037795;28;46688;-71
2023/08/14 10:02:32;;;;;;;4.60;2.87;;;30.70;12.20;;;;;;5040565;28;46465;-71
2023/08/14 10:05:01;;;;;;;6.10;3.13;;;30.20;13.30;;;;;;5018991;28;46778;-71
2023/08/14 10:07:27;;;;;;;5.83;3.50;;;29.90;13.70;;;;;;5022256;28;46442;-71
2023/08/14 10:09:57;;;;;;;13.60;3.37;;;30.10;13.70;;;;;;5023419;28;46696;-72
2023/08/14 10:12:33;;;;;;;6.27;3.30;;;30.40;13.30;;;;;;5012022;28;46572;-71
2023/08/14 10:15:11;;;;;;;5.53;2.80;;;30.50;12.80;;;;;;5019294;28;46983;-71
2023/08/14 10:17:51;;;;;;;6.80;3.07;;;30.60;12.40;;;;;;5019772;28;46455;-71
2023/08/14 10:20:21;;;;;;;9.20;3.43;;;30.60;11.80;;;;;;5032647;28;46528;-72
2023/08/14 10:22:47;;;;;;;8.20;3.47;;;30.50;12.60;;;;;;5019631;28;48705;-71
2023/08/14 10:25:14;;;;;;;7.20;3.60;;;30.40;12.90;;;;;;5020628;28;46467;-71
2023/08/14 10:27:40;;;;;;;7.43;3.53;;;30.40;12.70;;;;;;5015094;28;46988;-71
2023/08/14 10:30:07;;;;;;;7.93;3.10;;;30.60;12.10;;;;;;5020906;28;46542;-72
2023/08/14 10:32:35;;;;;;;9.73;3.07;;;30.70;11.70;;;;;;5032480;28;46507;-70
2023/08/14 10:35:02;;;;;;;7.13;3.43;;;30.80;11.70;;;;;;5022325;28;46452;-70
2023/08/14 10:37:48;;;;;;;6.03;3.30;;;30.90;11.70;;;;;;5032195;28;46457;-71
2023/08/14 10:40:21;;;;;;;7.47;3.43;;;31.10;11.30;;;;;;5015396;28;46400;-70
2023/08/14 10:42:58;;;;;;;5.23;3.20;;;30.90;11.70;;;;;;5022446;28;46447;-71
2023/08/14 10:45:25;;;;;;;6.33;3.40;;;30.80;11.70;;;;;;5016069;28;46357;-71
2023/08/14 10:47:53;;;;;;;7.63;3.40;;;30.80;12.20;;;;;;5013310;28;46000;-70
2023/08/14 10:50:23;;;;;;;4.03;2.50;;;30.60;12.20;;;;;;5015166;28;46513;-70
2023/08/14 10:52:52;;;;;;;7.97;3.33;;;30.80;11.90;;;;;;5024130;28;46388;-72
2023/08/14 10:55:34;;;;;;;6.57;2.90;;;31.00;11.20;;;;;;5017302;28;46791;-70
2023/08/14 10:58:00;;;;;;;11.70;3.10;;;30.90;11.50;;;;;;5018507;28;46521;-70
2023/08/14 11:00:26;;;;;;;6.83;3.40;;;31.10;11.20;;;;;;5024243;28;46873;-70
2023/08/14 11:03:06;;;;;;;6.77;3.07;;;31.30;10.60;;;;;;5025985;28;48838;-70
2023/08/14 11:05:39;;;;;;;6.93;2.70;;;31.60;9.90;;;;;;5020482;28;46489;-73
2023/08/14 11:08:10;;;;;;;4.77;2.73;;;31.60;9.30;;;;;;5020921;28;46529;-71
2023/08/14 11:10:37;;;;;;;5.67;3.07;;;31.30;9.10;;;;;;5020845;28;46484;-70
2023/08/14 11:13:08;;;;;;;9.33;3.20;;;31.30;9.80;;;;;;5022676;28;48100;-71
2023/08/14 11:15:38;;;;;;;5.47;3.00;;;31.00;10.20;;;;;;5019691;28;46335;-72
2023/08/14 11:18:11;;;;;;;6.80;2.67;;;31.00;10.40;;;;;;5023863;28;46507;-71
2023/08/14 11:20:41;;;;;;;7.30;3.23;;;31.10;10.30;;;;;;5028574;28;46402;-71
2023/08/14 11:23:07;;;;;;;6.60;3.67;;;31.30;10.30;;;;;;5015112;28;47862;-70
2023/08/14 11:25:34;;;;;;;5.73;2.90;;;31.20;10.30;;;;;;5014675;28;46418;-71
2023/08/14 11:28:00;;;;;;;5.70;2.73;;;31.20;10.40;;;;;;5018387;28;45816;-72
2023/08/14 11:30:30;;;;;;;6.27;2.87;;;31.40;9.90;;;;;;5010778;28;46828;-72
2023/08/14 11:32:56;;;;;;;7.00;3.77;;;31.40;9.90;;;;;;5016361;28;47926;-71
2023/08/14 11:35:24;;;;;;;6.70;3.40;;;31.30;9.50;;;;;;5015134;28;46495;-70
2023/08/14 11:37:50;;;;;;;5.90;3.17;;;31.20;10.10;;;;;;5022803;28;46526;-70
2023/08/14 11:40:16;;;;;;;5.37;3.50;;;31.30;10.20;;;;;;5019935;28;46560;-70
2023/08/14 11:42:42;;;;;;;6.20;2.73;;;31.20;10.30;;;;;;5018283;28;48297;-69
2023/08/14 11:45:09;;;;;;;6.37;2.87;;;31.20;10.30;;;;;;5020138;28;46586;-71
2023/08/14 11:47:40;;;;;;;7.20;2.73;;;31.40;10.10;;;;;;5019988;28;46482;-69
2023/08/14 11:50:09;;;;;;;5.97;3.00;;;31.50;10.00;;;;;;5028023;28;46445;-68
2023/08/14 11:52:36;;;;;;;6.03;3.30;;;31.40;10.20;;;;;;5018210;28;49295;-69
2023/08/14 11:55:02;;;;;;;7.57;2.83;;;31.50;10.30;;;;;;5021540;28;46498;-70
2023/08/14 11:57:32;;;;;;;4.73;2.80;;;31.70;9.80;;;;;;5020783;28;46230;-71
2023/08/14 12:00:00;;;;;;;7.53;3.00;;;31.60;9.80;;;;;;5017322;28;46537;-71
2023/08/14 12:02:28;;;;;;;10.33;2.90;;;31.60;10.00;;;;;;5021122;28;46332;-72
2023/08/14 12:04:59;;;;;;;6.03;3.00;;;31.40;10.00;;;;;;5030082;28;45824;-68
2023/08/14 12:07:26;;;;;;;4.90;2.43;;;31.30;10.00;;;;;;5014618;28;46441;-71
2023/08/14 12:09:56;;;;;;;8.03;3.10;;;31.20;10.40;;;;;;5018386;28;45922;-69
2023/08/14 12:12:24;;;;;;;4.90;2.73;;;31.10;10.70;;;;;;5015264;28;47572;-71
2023/08/14 12:14:51;;;;;;;5.63;2.50;;;31.10;10.60;;;;;;5017338;28;46688;-71
2023/08/14 12:17:18;;;;;;;10.00;2.53;;;31.20;10.50;;;;;;5021435;28;45914;-72
2023/08/14 12:19:52;;;;;;;6.97;2.87;;;31.20;10.50;;;;;;5020271;28;46708;-70
2023/08/14 12:22:22;;;;;;;6.93;3.13;;;31.50;10.00;;;;;;5013394;28;46462;-73
2023/08/14 12:24:48;;;;;;;5.00;2.27;;;31.80;9.50;;;;;;5020295;28;46445;-72
2023/08/14 12:27:15;;;;;;;8.00;3.00;;;31.60;9.50;;;;;;5020583;28;46434;-72
2023/08/14 12:29:41;;;;;;;8.80;3.13;;;31.40;9.80;;;;;;5019955;28;46544;-72
2023/08/14 12:32:07;;;;;;;6.03;2.80;;;31.10;10.30;;;;;;5018699;28;48084;-72
2023/08/14 12:34:33;;;;;;;15.83;3.00;;;31.30;10.20;;;;;;5019246;28;46886;-70
2023/08/14 12:36:58;;;;;;;4.00;2.20;;;31.50;9.80;;;;;;5017397;28;46420;-71
2023/08/14 12:39:24;;;;;;;5.40;2.77;;;31.70;9.20;;;;;;5019116;28;45887;-71
2023/08/14 12:41:55;;;;;;;5.40;2.43;;;31.80;8.20;;;;;;5021010;28;47325;-70
2023/08/14 12:44:21;;;;;;;7.97;2.27;;;31.90;7.10;;;;;;5020882;28;46779;-70
2023/08/14 12:46:50;;;;;;;4.00;2.27;;;32.20;7.30;;;;;;5020031;28;46757;-70
2023/08/14 12:49:15;;;;;;;6.83;2.80;;;32.50;7.40;;;;;;5025821;28;46423;-70
2023/08/14 12:51:41;;;;;;;4.87;2.40;;;32.70;6.20;;;;;;5020589;28;46532;-71
2023/08/14 12:54:10;;;;;;;6.63;2.67;;;32.80;5.90;;;;;;5024298;28;46652;-71